Airport View

Enter AWOS ICAO identifier for current METAR.

ex. KFNL

KPWM 040451Z AUTO 00000KT 10SM CLR 22/17 A3006 RMK AO2 SLP179 T02220167 403280211

4 Aug 2020 05:35

Phone: 207-874-7914

Other Area AWOS: KSFM - KLEW - KIWI

TAF KPWM 032320Z 0400/0424 27007KT P6SM FEW200 FM041300 10006KT P6SM BKN100 FM042000 12008G15KT P6SM BKN025 OVC050